sensor_id;sensor_type;location;lat;lon;timestamp;P1;durP1;ratioP1;P2;durP2;ratioP2
1567;SDS011;777;47.156;8.326;2023-06-10T00:01:51;4.72;;;4.07;;
1567;SDS011;777;47.156;8.326;2023-06-10T00:04:20;6.25;;;4.55;;
1567;SDS011;777;47.156;8.326;2023-06-10T00:06:47;4.40;;;4.00;;
1567;SDS011;777;47.156;8.326;2023-06-10T00:09:14;4.03;;;3.33;;
1567;SDS011;777;47.156;8.326;2023-06-10T00:11:44;4.45;;;3.72;;
1567;SDS011;777;47.156;8.326;2023-06-10T00:14:11;4.95;;;4.05;;
1567;SDS011;777;47.156;8.326;2023-06-10T00:16:38;4.22;;;3.83;;
1567;SDS011;777;47.156;8.326;2023-06-10T00:19:06;6.38;;;4.32;;
1567;SDS011;777;47.156;8.326;2023-06-10T00:21:34;5.05;;;4.55;;
1567;SDS011;777;47.156;8.326;2023-06-10T00:24:03;5.85;;;4.68;;
1567;SDS011;777;47.156;8.326;2023-06-10T00:26:30;6.15;;;4.35;;
1567;SDS011;777;47.156;8.326;2023-06-10T00:28:59;4.78;;;4.30;;
1567;SDS011;777;47.156;8.326;2023-06-10T00:31:26;6.68;;;4.38;;
1567;SDS011;777;47.156;8.326;2023-06-10T00:33:53;5.30;;;4.80;;
1567;SDS011;777;47.156;8.326;2023-06-10T00:36:20;4.57;;;4.10;;
1567;SDS011;777;47.156;8.326;2023-06-10T00:38:48;4.55;;;4.05;;
1567;SDS011;777;47.156;8.326;2023-06-10T00:41:15;4.78;;;4.25;;
1567;SDS011;777;47.156;8.326;2023-06-10T00:43:43;10.02;;;4.40;;
1567;SDS011;777;47.156;8.326;2023-06-10T00:46:12;8.20;;;4.20;;
1567;SDS011;777;47.156;8.326;2023-06-10T00:48:40;6.05;;;4.53;;
1567;SDS011;777;47.156;8.326;2023-06-10T00:51:10;5.18;;;4.65;;
1567;SDS011;777;47.156;8.326;2023-06-10T00:53:39;4.53;;;4.07;;
1567;SDS011;777;47.156;8.326;2023-06-10T00:56:07;4.88;;;4.35;;
1567;SDS011;777;47.156;8.326;2023-06-10T00:58:34;5.65;;;5.13;;
1567;SDS011;777;47.156;8.326;2023-06-10T01:01:02;4.65;;;4.10;;
1567;SDS011;777;47.156;8.326;2023-06-10T01:03:31;4.85;;;3.75;;
1567;SDS011;777;47.156;8.326;2023-06-10T01:06:04;5.47;;;4.38;;
1567;SDS011;777;47.156;8.326;2023-06-10T01:08:46;4.38;;;3.97;;
1567;SDS011;777;47.156;8.326;2023-06-10T01:11:20;4.32;;;3.92;;
1567;SDS011;777;47.156;8.326;2023-06-10T01:13:52;4.60;;;4.20;;
1567;SDS011;777;47.156;8.326;2023-06-10T01:16:22;5.18;;;4.68;;
1567;SDS011;777;47.156;8.326;2023-06-10T01:18:51;5.28;;;4.32;;
1567;SDS011;777;47.156;8.326;2023-06-10T01:21:21;4.82;;;4.38;;
1567;SDS011;777;47.156;8.326;2023-06-10T01:23:50;4.80;;;4.30;;
1567;SDS011;777;47.156;8.326;2023-06-10T01:26:17;5.65;;;4.43;;
1567;SDS011;777;47.156;8.326;2023-06-10T01:28:51;6.93;;;4.63;;
1567;SDS011;777;47.156;8.326;2023-06-10T01:31:23;5.25;;;4.45;;
1567;SDS011;777;47.156;8.326;2023-06-10T01:33:59;4.80;;;4.30;;
1567;SDS011;777;47.156;8.326;2023-06-10T01:36:29;5.20;;;4.28;;
1567;SDS011;777;47.156;8.326;2023-06-10T01:38:59;6.45;;;4.32;;
1567;SDS011;777;47.156;8.326;2023-06-10T01:41:27;5.75;;;4.32;;
1567;SDS011;777;47.156;8.326;2023-06-10T01:43:55;5.70;;;4.63;;
1567;SDS011;777;47.156;8.326;2023-06-10T01:46:22;6.40;;;4.57;;
1567;SDS011;777;47.156;8.326;2023-06-10T01:48:49;4.88;;;4.40;;
1567;SDS011;777;47.156;8.326;2023-06-10T01:51:16;5.60;;;4.85;;
1567;SDS011;777;47.156;8.326;2023-06-10T01:53:45;5.78;;;5.18;;
1567;SDS011;777;47.156;8.326;2023-06-10T01:56:12;6.25;;;5.25;;
1567;SDS011;777;47.156;8.326;2023-06-10T01:58:42;6.38;;;5.30;;
1567;SDS011;777;47.156;8.326;2023-06-10T02:01:09;5.57;;;5.07;;
1567;SDS011;777;47.156;8.326;2023-06-10T02:03:36;5.07;;;4.60;;
1567;SDS011;777;47.156;8.326;2023-06-10T02:06:03;5.30;;;4.80;;
1567;SDS011;777;47.156;8.326;2023-06-10T02:08:30;5.07;;;4.53;;
1567;SDS011;777;47.156;8.326;2023-06-10T02:11:02;5.78;;;5.20;;
1567;SDS011;777;47.156;8.326;2023-06-10T02:13:29;6.38;;;5.72;;
1567;SDS011;777;47.156;8.326;2023-06-10T02:15:56;5.70;;;5.20;;
1567;SDS011;777;47.156;8.326;2023-06-10T02:18:27;6.18;;;5.57;;
1567;SDS011;777;47.156;8.326;2023-06-10T02:20:54;6.47;;;5.75;;
1567;SDS011;777;47.156;8.326;2023-06-10T02:23:21;7.22;;;5.75;;
1567;SDS011;777;47.156;8.326;2023-06-10T02:25:48;5.68;;;5.18;;
1567;SDS011;777;47.156;8.326;2023-06-10T02:28:16;6.38;;;5.78;;
1567;SDS011;777;47.156;8.326;2023-06-10T02:30:44;8.00;;;6.70;;
1567;SDS011;777;47.156;8.326;2023-06-10T02:33:12;6.82;;;6.00;;
1567;SDS011;777;47.156;8.326;2023-06-10T02:35:40;7.03;;;6.43;;
1567;SDS011;777;47.156;8.326;2023-06-10T02:38:07;6.97;;;6.28;;
1567;SDS011;777;47.156;8.326;2023-06-10T02:40:34;6.82;;;6.22;;
1567;SDS011;777;47.156;8.326;2023-06-10T02:43:01;7.63;;;6.57;;
1567;SDS011;777;47.156;8.326;2023-06-10T02:45:30;7.60;;;6.90;;
1567;SDS011;777;47.156;8.326;2023-06-10T02:47:58;7.22;;;6.53;;
1567;SDS011;777;47.156;8.326;2023-06-10T02:50:25;8.07;;;7.15;;
1567;SDS011;777;47.156;8.326;2023-06-10T02:53:25;7.53;;;6.68;;
1567;SDS011;777;47.156;8.326;2023-06-10T02:55:59;8.77;;;7.88;;
1567;SDS011;777;47.156;8.326;2023-06-10T02:58:27;8.00;;;7.20;;
1567;SDS011;777;47.156;8.326;2023-06-10T03:00:56;7.53;;;6.68;;
1567;SDS011;777;47.156;8.326;2023-06-10T03:03:24;8.10;;;7.40;;
1567;SDS011;777;47.156;8.326;2023-06-10T03:06:02;8.40;;;6.65;;
1567;SDS011;777;47.156;8.326;2023-06-10T03:08:31;7.82;;;6.90;;
1567;SDS011;777;47.156;8.326;2023-06-10T03:11:01;8.02;;;6.78;;
1567;SDS011;777;47.156;8.326;2023-06-10T03:13:30;8.00;;;7.20;;
1567;SDS011;777;47.156;8.326;2023-06-10T03:15:58;8.00;;;7.30;;
1567;SDS011;777;47.156;8.326;2023-06-10T03:18:26;7.65;;;6.85;;
1567;SDS011;777;47.156;8.326;2023-06-10T03:20:54;8.60;;;7.70;;
1567;SDS011;777;47.156;8.326;2023-06-10T03:23:24;7.53;;;6.72;;
1567;SDS011;777;47.156;8.326;2023-06-10T03:25:53;8.27;;;7.47;;
1567;SDS011;777;47.156;8.326;2023-06-10T03:28:20;9.05;;;6.90;;
1567;SDS011;777;47.156;8.326;2023-06-10T03:30:47;7.90;;;7.10;;
1567;SDS011;777;47.156;8.326;2023-06-10T03:33:17;8.07;;;7.07;;
1567;SDS011;777;47.156;8.326;2023-06-10T03:35:44;7.70;;;7.05;;
1567;SDS011;777;47.156;8.326;2023-06-10T03:38:12;8.30;;;7.40;;
1567;SDS011;777;47.156;8.326;2023-06-10T03:40:40;7.60;;;6.80;;
1567;SDS011;777;47.156;8.326;2023-06-10T03:43:07;8.07;;;7.28;;
1567;SDS011;777;47.156;8.326;2023-06-10T03:45:35;9.13;;;7.78;;
1567;SDS011;777;47.156;8.326;2023-06-10T03:48:02;8.68;;;7.78;;
1567;SDS011;777;47.156;8.326;2023-06-10T03:50:39;8.98;;;7.60;;
1567;SDS011;777;47.156;8.326;2023-06-10T03:53:07;7.95;;;7.25;;
1567;SDS011;777;47.156;8.326;2023-06-10T03:55:35;8.45;;;7.00;;
1567;SDS011;777;47.156;8.326;2023-06-10T03:58:02;7.72;;;7.03;;
1567;SDS011;777;47.156;8.326;2023-06-10T04:00:29;7.57;;;6.78;;
1567;SDS011;777;47.156;8.326;2023-06-10T04:03:06;7.50;;;6.78;;
1567;SDS011;777;47.156;8.326;2023-06-10T04:05:38;7.20;;;6.50;;
1567;SDS011;777;47.156;8.326;2023-06-10T04:08:07;7.38;;;6.47;;
1567;SDS011;777;47.156;8.326;2023-06-10T04:10:34;6.25;;;5.65;;
1567;SDS011;777;47.156;8.326;2023-06-10T04:13:02;7.10;;;5.60;;
1567;SDS011;777;47.156;8.326;2023-06-10T04:15:34;8.25;;;5.90;;
1567;SDS011;777;47.156;8.326;2023-06-10T04:18:06;5.70;;;5.20;;
1567;SDS011;777;47.156;8.326;2023-06-10T04:20:33;5.72;;;5.15;;
1567;SDS011;777;47.156;8.326;2023-06-10T04:23:02;6.70;;;4.93;;
1567;SDS011;777;47.156;8.326;2023-06-10T04:25:30;6.18;;;4.80;;
1567;SDS011;777;47.156;8.326;2023-06-10T04:27:57;5.43;;;4.90;;
1567;SDS011;777;47.156;8.326;2023-06-10T04:30:24;6.65;;;4.78;;
1567;SDS011;777;47.156;8.326;2023-06-10T04:32:52;5.60;;;5.00;;
1567;SDS011;777;47.156;8.326;2023-06-10T04:35:19;5.30;;;4.80;;
1567;SDS011;777;47.156;8.326;2023-06-10T04:37:47;5.25;;;4.75;;
1567;SDS011;777;47.156;8.326;2023-06-10T04:40:16;6.28;;;5.00;;
1567;SDS011;777;47.156;8.326;2023-06-10T04:42:45;4.97;;;4.47;;
1567;SDS011;777;47.156;8.326;2023-06-10T04:45:12;5.45;;;5.00;;
1567;SDS011;777;47.156;8.326;2023-06-10T04:47:40;5.30;;;4.80;;
1567;SDS011;777;47.156;8.326;2023-06-10T04:50:07;5.22;;;4.72;;
1567;SDS011;777;47.156;8.326;2023-06-10T04:52:34;5.72;;;4.78;;
1567;SDS011;777;47.156;8.326;2023-06-10T04:55:02;6.18;;;5.57;;
1567;SDS011;777;47.156;8.326;2023-06-10T04:57:30;6.57;;;5.22;;
1567;SDS011;777;47.156;8.326;2023-06-10T04:59:57;6.13;;;5.35;;
1567;SDS011;777;47.156;8.326;2023-06-10T05:02:24;5.50;;;5.00;;
1567;SDS011;777;47.156;8.326;2023-06-10T05:04:51;6.28;;;5.47;;
1567;SDS011;777;47.156;8.326;2023-06-10T05:07:20;6.32;;;4.85;;
1567;SDS011;777;47.156;8.326;2023-06-10T05:09:47;5.80;;;5.20;;
1567;SDS011;777;47.156;8.326;2023-06-10T05:12:14;5.97;;;4.95;;
1567;SDS011;777;47.156;8.326;2023-06-10T05:14:42;5.72;;;5.15;;
1567;SDS011;777;47.156;8.326;2023-06-10T05:17:10;5.95;;;5.32;;
1567;SDS011;777;47.156;8.326;2023-06-10T05:19:38;5.93;;;5.00;;
1567;SDS011;777;47.156;8.326;2023-06-10T05:22:05;5.72;;;4.82;;
1567;SDS011;777;47.156;8.326;2023-06-10T05:24:32;4.70;;;4.30;;
1567;SDS011;777;47.156;8.326;2023-06-10T05:26:59;5.22;;;4.78;;
1567;SDS011;777;47.156;8.326;2023-06-10T05:29:26;4.93;;;4.53;;
1567;SDS011;777;47.156;8.326;2023-06-10T05:31:55;6.47;;;5.50;;
1567;SDS011;777;47.156;8.326;2023-06-10T05:34:22;7.82;;;5.28;;
1567;SDS011;777;47.156;8.326;2023-06-10T05:36:49;7.05;;;5.00;;
1567;SDS011;777;47.156;8.326;2023-06-10T05:39:17;7.18;;;4.80;;
1567;SDS011;777;47.156;8.326;2023-06-10T05:41:45;6.47;;;4.72;;
1567;SDS011;777;47.156;8.326;2023-06-10T05:44:12;5.28;;;4.65;;
1567;SDS011;777;47.156;8.326;2023-06-10T05:46:40;5.28;;;4.38;;
1567;SDS011;777;47.156;8.326;2023-06-10T05:49:08;5.35;;;4.85;;
1567;SDS011;777;47.156;8.326;2023-06-10T05:51:35;5.10;;;4.60;;
1567;SDS011;777;47.156;8.326;2023-06-10T05:54:03;5.30;;;4.78;;
1567;SDS011;777;47.156;8.326;2023-06-10T05:56:30;5.10;;;4.47;;
1567;SDS011;777;47.156;8.326;2023-06-10T05:58:57;6.70;;;4.72;;
1567;SDS011;777;47.156;8.326;2023-06-10T06:01:24;6.40;;;4.63;;
1567;SDS011;777;47.156;8.326;2023-06-10T06:03:51;6.63;;;5.10;;
1567;SDS011;777;47.156;8.326;2023-06-10T06:06:20;5.78;;;5.10;;
1567;SDS011;777;47.156;8.326;2023-06-10T06:08:47;4.95;;;4.55;;
1567;SDS011;777;47.156;8.326;2023-06-10T06:11:14;6.75;;;5.43;;
1567;SDS011;777;47.156;8.326;2023-06-10T06:13:41;5.57;;;5.00;;
1567;SDS011;777;47.156;8.326;2023-06-10T06:16:08;4.97;;;4.57;;
1567;SDS011;777;47.156;8.326;2023-06-10T06:18:35;5.80;;;5.25;;
1567;SDS011;777;47.156;8.326;2023-06-10T06:21:02;5.93;;;5.18;;
1567;SDS011;777;47.156;8.326;2023-06-10T06:23:30;5.45;;;4.95;;
1567;SDS011;777;47.156;8.326;2023-06-10T06:25:57;7.38;;;4.25;;
1567;SDS011;777;47.156;8.326;2023-06-10T06:28:24;5.25;;;4.75;;
1567;SDS011;777;47.156;8.326;2023-06-10T06:30:54;5.20;;;4.70;;
1567;SDS011;777;47.156;8.326;2023-06-10T06:33:21;5.97;;;4.68;;
1567;SDS011;777;47.156;8.326;2023-06-10T06:35:48;5.20;;;4.70;;
1567;SDS011;777;47.156;8.326;2023-06-10T06:38:15;4.47;;;4.07;;
1567;SDS011;777;47.156;8.326;2023-06-10T06:40:44;4.90;;;3.42;;
1567;SDS011;777;47.156;8.326;2023-06-10T06:43:11;3.95;;;3.30;;
1567;SDS011;777;47.156;8.326;2023-06-10T06:45:54;3.40;;;3.10;;
1567;SDS011;777;47.156;8.326;2023-06-10T06:48:21;3.92;;;3.10;;
1567;SDS011;777;47.156;8.326;2023-06-10T06:50:48;12.30;;;4.20;;
1567;SDS011;777;47.156;8.326;2023-06-10T06:53:15;9.75;;;3.20;;
1567;SDS011;777;47.156;8.326;2023-06-10T06:55:43;18.88;;;4.13;;
1567;SDS011;777;47.156;8.326;2023-06-10T06:58:11;6.30;;;3.55;;
1567;SDS011;777;47.156;8.326;2023-06-10T07:00:38;12.02;;;4.00;;
1567;SDS011;777;47.156;8.326;2023-06-10T07:03:05;5.28;;;3.80;;
1567;SDS011;777;47.156;8.326;2023-06-10T07:05:32;3.53;;;3.22;;
1567;SDS011;777;47.156;8.326;2023-06-10T07:07:59;3.90;;;3.40;;
1567;SDS011;777;47.156;8.326;2023-06-10T07:10:26;3.53;;;3.22;;
1567;SDS011;777;47.156;8.326;2023-06-10T07:12:54;4.63;;;3.30;;
1567;SDS011;777;47.156;8.326;2023-06-10T07:15:21;4.47;;;3.40;;
1567;SDS011;777;47.156;8.326;2023-06-10T07:17:48;5.15;;;3.40;;
1567;SDS011;777;47.156;8.326;2023-06-10T07:20:15;5.05;;;3.83;;
1567;SDS011;777;47.156;8.326;2023-06-10T07:22:43;4.40;;;3.42;;
1567;SDS011;777;47.156;8.326;2023-06-10T07:25:10;4.47;;;3.35;;
1567;SDS011;777;47.156;8.326;2023-06-10T07:27:37;4.00;;;3.60;;
1567;SDS011;777;47.156;8.326;2023-06-10T07:30:06;5.68;;;4.50;;
1567;SDS011;777;47.156;8.326;2023-06-10T07:32:34;4.68;;;3.80;;
1567;SDS011;777;47.156;8.326;2023-06-10T07:35:01;4.43;;;4.03;;
1567;SDS011;777;47.156;8.326;2023-06-10T07:37:28;4.97;;;4.03;;
1567;SDS011;777;47.156;8.326;2023-06-10T07:39:56;5.65;;;4.18;;
1567;SDS011;777;47.156;8.326;2023-06-10T07:42:23;5.50;;;4.30;;
1567;SDS011;777;47.156;8.326;2023-06-10T07:44:50;5.68;;;4.80;;
1567;SDS011;777;47.156;8.326;2023-06-10T07:47:18;4.05;;;3.60;;
1567;SDS011;777;47.156;8.326;2023-06-10T07:49:45;7.32;;;4.82;;
1567;SDS011;777;47.156;8.326;2023-06-10T07:52:12;4.50;;;4.10;;
1567;SDS011;777;47.156;8.326;2023-06-10T07:54:39;6.15;;;4.70;;
1567;SDS011;777;47.156;8.326;2023-06-10T07:57:06;5.72;;;4.40;;
1567;SDS011;777;47.156;8.326;2023-06-10T07:59:33;5.13;;;3.80;;
1567;SDS011;777;47.156;8.326;2023-06-10T08:02:00;4.00;;;3.60;;
1567;SDS011;777;47.156;8.326;2023-06-10T08:04:28;5.70;;;4.28;;
1567;SDS011;777;47.156;8.326;2023-06-10T08:06:56;4.28;;;3.88;;
1567;SDS011;777;47.156;8.326;2023-06-10T08:09:22;4.82;;;4.40;;
1567;SDS011;777;47.156;8.326;2023-06-10T08:11:50;5.03;;;4.50;;
1567;SDS011;777;47.156;8.326;2023-06-10T08:14:17;5.43;;;4.93;;
1567;SDS011;777;47.156;8.326;2023-06-10T08:16:44;5.38;;;4.88;;
1567;SDS011;777;47.156;8.326;2023-06-10T08:19:11;5.07;;;4.57;;
1567;SDS011;777;47.156;8.326;2023-06-10T08:21:40;5.63;;;5.13;;
1567;SDS011;777;47.156;8.326;2023-06-10T08:24:07;5.95;;;4.85;;
1567;SDS011;777;47.156;8.326;2023-06-10T08:26:34;5.63;;;4.28;;
1567;SDS011;777;47.156;8.326;2023-06-10T08:29:00;5.70;;;4.50;;
1567;SDS011;777;47.156;8.326;2023-06-10T08:31:27;4.75;;;4.35;;
1567;SDS011;777;47.156;8.326;2023-06-10T08:33:55;5.72;;;4.88;;
1567;SDS011;777;47.156;8.326;2023-06-10T08:36:22;5.30;;;4.65;;
1567;SDS011;777;47.156;8.326;2023-06-10T08:38:50;5.88;;;5.32;;
1567;SDS011;777;47.156;8.326;2023-06-10T08:41:17;5.68;;;4.90;;
1567;SDS011;777;47.156;8.326;2023-06-10T08:43:47;5.70;;;5.10;;
1567;SDS011;777;47.156;8.326;2023-06-10T08:46:20;6.63;;;6.03;;
1567;SDS011;777;47.156;8.326;2023-06-10T08:48:47;5.57;;;5.07;;
1567;SDS011;777;47.156;8.326;2023-06-10T08:51:20;6.47;;;5.80;;
1567;SDS011;777;47.156;8.326;2023-06-10T08:53:52;6.13;;;5.53;;
1567;SDS011;777;47.156;8.326;2023-06-10T08:56:25;6.45;;;5.85;;
1567;SDS011;777;47.156;8.326;2023-06-10T08:58:54;6.40;;;5.10;;
1567;SDS011;777;47.156;8.326;2023-06-10T09:01:23;6.20;;;5.70;;
1567;SDS011;777;47.156;8.326;2023-06-10T09:03:50;8.35;;;5.68;;
1567;SDS011;777;47.156;8.326;2023-06-10T09:06:17;7.40;;;5.82;;
1567;SDS011;777;47.156;8.326;2023-06-10T09:08:45;7.22;;;5.72;;
1567;SDS011;777;47.156;8.326;2023-06-10T09:11:13;6.93;;;4.72;;
1567;SDS011;777;47.156;8.326;2023-06-10T09:13:40;6.43;;;5.80;;
1567;SDS011;777;47.156;8.326;2023-06-10T09:16:07;6.97;;;6.28;;
1567;SDS011;777;47.156;8.326;2023-06-10T09:18:37;8.57;;;6.05;;
1567;SDS011;777;47.156;8.326;2023-06-10T09:21:04;6.20;;;5.65;;
1567;SDS011;777;47.156;8.326;2023-06-10T09:23:31;5.45;;;4.75;;
1567;SDS011;777;47.156;8.326;2023-06-10T09:25:58;8.70;;;5.22;;
1567;SDS011;777;47.156;8.326;2023-06-10T09:28:27;6.90;;;5.93;;
1567;SDS011;777;47.156;8.326;2023-06-10T09:31:03;6.55;;;5.72;;
1567;SDS011;777;47.156;8.326;2023-06-10T09:33:32;7.57;;;5.60;;
1567;SDS011;777;47.156;8.326;2023-06-10T09:36:03;6.40;;;5.80;;
1567;SDS011;777;47.156;8.326;2023-06-10T09:38:30;5.65;;;5.15;;
1567;SDS011;777;47.156;8.326;2023-06-10T09:40:58;7.18;;;4.25;;
1567;SDS011;777;47.156;8.326;2023-06-10T09:43:39;4.75;;;4.35;;
1567;SDS011;777;47.156;8.326;2023-06-10T09:46:07;4.43;;;3.92;;
1567;SDS011;777;47.156;8.326;2023-06-10T09:48:41;4.50;;;4.10;;
1567;SDS011;777;47.156;8.326;2023-06-10T09:51:09;4.38;;;3.97;;
1567;SDS011;777;47.156;8.326;2023-06-10T09:53:36;4.53;;;4.13;;
1567;SDS011;777;47.156;8.326;2023-06-10T09:56:04;5.05;;;4.18;;
1567;SDS011;777;47.156;8.326;2023-06-10T09:58:36;4.80;;;4.13;;
1567;SDS011;777;47.156;8.326;2023-06-10T10:01:08;8.40;;;4.27;;
1567;SDS011;777;47.156;8.326;2023-06-10T10:03:43;6.32;;;4.07;;
1567;SDS011;777;47.156;8.326;2023-06-10T10:06:11;4.60;;;3.53;;
1567;SDS011;777;47.156;8.326;2023-06-10T10:08:39;4.75;;;4.35;;
1567;SDS011;777;47.156;8.326;2023-06-10T10:11:06;5.03;;;4.32;;
1567;SDS011;777;47.156;8.326;2023-06-10T10:13:33;5.28;;;3.97;;
1567;SDS011;777;47.156;8.326;2023-06-10T10:16:04;5.20;;;3.90;;
1567;SDS011;777;47.156;8.326;2023-06-10T10:18:33;4.30;;;3.90;;
1567;SDS011;777;47.156;8.326;2023-06-10T10:21:05;6.30;;;4.32;;
1567;SDS011;777;47.156;8.326;2023-06-10T10:23:36;5.25;;;4.13;;
1567;SDS011;777;47.156;8.326;2023-06-10T10:26:07;7.93;;;4.18;;
1567;SDS011;777;47.156;8.326;2023-06-10T10:28:41;5.40;;;4.45;;
1567;SDS011;777;47.156;8.326;2023-06-10T10:31:14;5.90;;;4.43;;
1567;SDS011;777;47.156;8.326;2023-06-10T10:33:48;5.30;;;4.90;;
1567;SDS011;777;47.156;8.326;2023-06-10T10:36:21;5.53;;;5.03;;
1567;SDS011;777;47.156;8.326;2023-06-10T10:38:48;5.50;;;4.82;;
1567;SDS011;777;47.156;8.326;2023-06-10T10:41:15;5.50;;;4.22;;
1567;SDS011;777;47.156;8.326;2023-06-10T10:43:45;6.88;;;4.50;;
1567;SDS011;777;47.156;8.326;2023-06-10T10:46:13;4.88;;;4.47;;
1567;SDS011;777;47.156;8.326;2023-06-10T10:48:42;4.53;;;4.13;;
1567;SDS011;777;47.156;8.326;2023-06-10T10:51:10;4.75;;;4.20;;
1567;SDS011;777;47.156;8.326;2023-06-10T10:53:37;4.93;;;3.83;;
1567;SDS011;777;47.156;8.326;2023-06-10T10:56:05;4.22;;;3.80;;
1567;SDS011;777;47.156;8.326;2023-06-10T10:58:33;5.38;;;3.78;;
1567;SDS011;777;47.156;8.326;2023-06-10T11:01:01;4.70;;;3.58;;
1567;SDS011;777;47.156;8.326;2023-06-10T11:03:42;4.70;;;4.20;;
1567;SDS011;777;47.156;8.326;2023-06-10T11:06:12;5.93;;;4.78;;
1567;SDS011;777;47.156;8.326;2023-06-10T11:08:47;6.22;;;4.13;;
1567;SDS011;777;47.156;8.326;2023-06-10T11:11:20;6.07;;;4.85;;
1567;SDS011;777;47.156;8.326;2023-06-10T11:14:07;7.47;;;4.22;;
1567;SDS011;777;47.156;8.326;2023-06-10T11:16:41;4.70;;;3.80;;
1567;SDS011;777;47.156;8.326;2023-06-10T11:19:09;4.47;;;4.03;;
1567;SDS011;777;47.156;8.326;2023-06-10T11:21:59;5.30;;;4.00;;
1567;SDS011;777;47.156;8.326;2023-06-10T11:24:28;4.47;;;4.07;;
1567;SDS011;777;47.156;8.326;2023-06-10T11:29:54;5.63;;;4.35;;
1567;SDS011;777;47.156;8.326;2023-06-10T11:32:23;4.78;;;4.30;;
1567;SDS011;777;47.156;8.326;2023-06-10T11:34:55;4.18;;;3.78;;
1567;SDS011;777;47.156;8.326;2023-06-10T11:37:22;4.43;;;4.03;;
1567;SDS011;777;47.156;8.326;2023-06-10T11:39:51;5.05;;;3.85;;
1567;SDS011;777;47.156;8.326;2023-06-10T11:42:18;4.53;;;4.13;;
1567;SDS011;777;47.156;8.326;2023-06-10T11:44:49;4.90;;;4.40;;
1567;SDS011;777;47.156;8.326;2023-06-10T11:47:16;6.97;;;4.28;;
1567;SDS011;777;47.156;8.326;2023-06-10T11:49:45;5.43;;;4.40;;
1567;SDS011;777;47.156;8.326;2023-06-10T11:52:13;5.90;;;4.03;;
1567;SDS011;777;47.156;8.326;2023-06-10T11:54:39;4.53;;;4.05;;
1567;SDS011;777;47.156;8.326;2023-06-10T11:57:07;6.82;;;4.97;;
1567;SDS011;777;47.156;8.326;2023-06-10T11:59:35;5.68;;;4.45;;
1567;SDS011;777;47.156;8.326;2023-06-10T12:02:02;5.63;;;4.55;;
1567;SDS011;777;47.156;8.326;2023-06-10T12:04:29;4.68;;;4.28;;
1567;SDS011;777;47.156;8.326;2023-06-10T12:06:57;5.38;;;4.45;;
1567;SDS011;777;47.156;8.326;2023-06-10T12:09:24;6.25;;;4.90;;
1567;SDS011;777;47.156;8.326;2023-06-10T12:11:53;7.00;;;4.70;;
1567;SDS011;777;47.156;8.326;2023-06-10T12:17:20;4.90;;;4.35;;
1567;SDS011;777;47.156;8.326;2023-06-10T12:19:48;4.38;;;3.97;;
1567;SDS011;777;47.156;8.326;2023-06-10T12:22:16;4.65;;;4.18;;
1567;SDS011;777;47.156;8.326;2023-06-10T12:24:44;4.25;;;3.80;;
1567;SDS011;777;47.156;8.326;2023-06-10T12:27:12;5.15;;;3.95;;
1567;SDS011;777;47.156;8.326;2023-06-10T12:29:39;4.07;;;3.70;;
1567;SDS011;777;47.156;8.326;2023-06-10T12:32:16;3.60;;;3.30;;
1567;SDS011;777;47.156;8.326;2023-06-10T12:34:45;4.85;;;3.65;;
1567;SDS011;777;47.156;8.326;2023-06-10T12:37:12;3.67;;;3.38;;
1567;SDS011;777;47.156;8.326;2023-06-10T12:39:41;4.32;;;3.92;;
1567;SDS011;777;47.156;8.326;2023-06-10T12:42:21;3.75;;;3.30;;
1567;SDS011;777;47.156;8.326;2023-06-10T12:44:52;4.03;;;3.63;;
1567;SDS011;777;47.156;8.326;2023-06-10T12:47:28;4.43;;;3.40;;
1567;SDS011;777;47.156;8.326;2023-06-10T12:49:57;4.10;;;3.70;;
1567;SDS011;777;47.156;8.326;2023-06-10T12:52:24;4.18;;;3.60;;
1567;SDS011;777;47.156;8.326;2023-06-10T12:54:53;4.10;;;3.70;;
1567;SDS011;777;47.156;8.326;2023-06-10T12:57:20;4.45;;;3.72;;
1567;SDS011;777;47.156;8.326;2023-06-10T12:59:47;5.15;;;3.60;;
1567;SDS011;777;47.156;8.326;2023-06-10T13:02:17;3.58;;;3.28;;
1567;SDS011;777;47.156;8.326;2023-06-10T13:04:46;3.72;;;3.30;;
1567;SDS011;777;47.156;8.326;2023-06-10T13:07:12;4.13;;;3.17;;
1567;SDS011;777;47.156;8.326;2023-06-10T13:09:40;5.50;;;3.35;;
1567;SDS011;777;47.156;8.326;2023-06-10T13:12:08;4.88;;;3.00;;
1567;SDS011;777;47.156;8.326;2023-06-10T13:14:36;4.35;;;3.25;;
1567;SDS011;777;47.156;8.326;2023-06-10T13:17:03;5.95;;;2.92;;
1567;SDS011;777;47.156;8.326;2023-06-10T13:19:31;3.10;;;2.65;;
1567;SDS011;777;47.156;8.326;2023-06-10T13:21:58;2.97;;;2.78;;
1567;SDS011;777;47.156;8.326;2023-06-10T13:24:26;3.50;;;3.10;;
1567;SDS011;777;47.156;8.326;2023-06-10T13:26:53;3.70;;;3.03;;
1567;SDS011;777;47.156;8.326;2023-06-10T13:29:22;3.95;;;3.08;;
1567;SDS011;777;47.156;8.326;2023-06-10T13:31:49;4.80;;;2.90;;
1567;SDS011;777;47.156;8.326;2023-06-10T13:34:16;4.55;;;3.45;;
1567;SDS011;777;47.156;8.326;2023-06-10T13:36:43;3.80;;;3.25;;
1567;SDS011;777;47.156;8.326;2023-06-10T13:39:10;4.95;;;3.50;;
1567;SDS011;777;47.156;8.326;2023-06-10T13:41:39;3.70;;;3.40;;
1567;SDS011;777;47.156;8.326;2023-06-10T13:44:06;4.22;;;3.80;;
1567;SDS011;777;47.156;8.326;2023-06-10T13:46:35;4.22;;;3.83;;
1567;SDS011;777;47.156;8.326;2023-06-10T13:49:02;5.13;;;4.07;;
1567;SDS011;777;47.156;8.326;2023-06-10T13:51:29;4.75;;;4.20;;
1567;SDS011;777;47.156;8.326;2023-06-10T13:53:56;4.60;;;4.18;;
1567;SDS011;777;47.156;8.326;2023-06-10T13:56:22;6.65;;;4.78;;
1567;SDS011;777;47.156;8.326;2023-06-10T13:58:50;4.07;;;3.67;;
1567;SDS011;777;47.156;8.326;2023-06-10T14:01:17;3.63;;;3.33;;
1567;SDS011;777;47.156;8.326;2023-06-10T14:03:46;3.90;;;3.60;;
1567;SDS011;777;47.156;8.326;2023-06-10T14:06:13;4.07;;;3.42;;
1567;SDS011;777;47.156;8.326;2023-06-10T14:08:43;4.35;;;3.10;;
1567;SDS011;777;47.156;8.326;2023-06-10T14:11:10;3.40;;;3.10;;
1567;SDS011;777;47.156;8.326;2023-06-10T14:13:37;4.68;;;2.85;;
1567;SDS011;777;47.156;8.326;2023-06-10T14:16:05;4.05;;;2.92;;
1567;SDS011;777;47.156;8.326;2023-06-10T14:18:32;4.47;;;2.85;;
1567;SDS011;777;47.156;8.326;2023-06-10T14:21:00;4.15;;;2.60;;
1567;SDS011;777;47.156;8.326;2023-06-10T14:23:27;2.97;;;2.60;;
1567;SDS011;777;47.156;8.326;2023-06-10T14:25:54;4.00;;;2.33;;
1567;SDS011;777;47.156;8.326;2023-06-10T14:28:21;3.17;;;2.40;;
1567;SDS011;777;47.156;8.326;2023-06-10T14:30:49;2.78;;;2.38;;
1567;SDS011;777;47.156;8.326;2023-06-10T14:33:16;3.22;;;2.92;;
1567;SDS011;777;47.156;8.326;2023-06-10T14:35:43;3.95;;;2.78;;
1567;SDS011;777;47.156;8.326;2023-06-10T14:38:11;5.10;;;2.72;;
1567;SDS011;777;47.156;8.326;2023-06-10T14:40:38;4.05;;;3.00;;
1567;SDS011;777;47.156;8.326;2023-06-10T14:43:05;3.75;;;2.90;;
1567;SDS011;777;47.156;8.326;2023-06-10T14:45:35;4.82;;;3.17;;
1567;SDS011;777;47.156;8.326;2023-06-10T14:48:02;3.30;;;3.00;;
1567;SDS011;777;47.156;8.326;2023-06-10T14:50:29;3.13;;;2.90;;
1567;SDS011;777;47.156;8.326;2023-06-10T14:52:57;3.00;;;2.65;;
1567;SDS011;777;47.156;8.326;2023-06-10T14:55:25;2.78;;;2.58;;
1567;SDS011;777;47.156;8.326;2023-06-10T14:57:52;4.03;;;3.10;;
1567;SDS011;777;47.156;8.326;2023-06-10T15:00:20;3.90;;;3.10;;
1567;SDS011;777;47.156;8.326;2023-06-10T15:02:49;3.72;;;3.30;;
1567;SDS011;777;47.156;8.326;2023-06-10T15:05:16;4.28;;;3.47;;
1567;SDS011;777;47.156;8.326;2023-06-10T15:07:44;3.10;;;2.80;;
1567;SDS011;777;47.156;8.326;2023-06-10T15:10:11;3.60;;;2.72;;
1567;SDS011;777;47.156;8.326;2023-06-10T15:12:40;4.32;;;2.88;;
1567;SDS011;777;47.156;8.326;2023-06-10T15:15:07;4.38;;;2.92;;
1567;SDS011;777;47.156;8.326;2023-06-10T15:17:34;3.20;;;2.63;;
1567;SDS011;777;47.156;8.326;2023-06-10T15:20:01;3.55;;;2.58;;
1567;SDS011;777;47.156;8.326;2023-06-10T15:22:29;2.85;;;2.65;;
1567;SDS011;777;47.156;8.326;2023-06-10T15:24:56;5.05;;;2.75;;
1567;SDS011;777;47.156;8.326;2023-06-10T15:27:23;3.20;;;2.70;;
1567;SDS011;777;47.156;8.326;2023-06-10T15:29:52;3.55;;;2.65;;
1567;SDS011;777;47.156;8.326;2023-06-10T15:32:19;3.03;;;2.30;;
1567;SDS011;777;47.156;8.326;2023-06-10T15:34:45;2.53;;;2.33;;
1567;SDS011;777;47.156;8.326;2023-06-10T15:37:13;2.85;;;2.08;;
1567;SDS011;777;47.156;8.326;2023-06-10T15:39:41;2.28;;;1.88;;
1567;SDS011;777;47.156;8.326;2023-06-10T15:42:08;3.08;;;2.38;;
1567;SDS011;777;47.156;8.326;2023-06-10T15:44:35;2.17;;;1.77;;